Time;durP1;ratioP1;P1;durP2;ratioP2;P2;SDS_P1;SDS_P2;PMS_P1;PMS_P2;Temp;Humidity;BMP_temperature;BMP_pressure;BME280_temperature;BME280_humidity;BME280_pressure;Samples;Min_cycle;Max_cycle;Signal;HPM_P1;HPM_P2
2022/11/04 00:00:13;;;;;;;;;;;;;;;9.98;100.00;99993.63;5093624;28;20059;-65
2022/11/04 00:02:38;;;;;;;3.90;0.68;;;;;;;9.98;100.00;100002.38;5082495;28;19912;-65
2022/11/04 00:05:04;;;;;;;6.53;0.85;;;;;;;10.01;100.00;100015.56;5093680;28;20103;-65
2022/11/04 00:10:13;;;;;;;3.90;1.00;;;;;;;10.01;100.00;100026.06;5086366;28;20031;-65
2022/11/04 00:12:39;;;;;;;4.78;0.93;;;;;;;10.03;100.00;100028.69;5089969;28;20016;-64
2022/11/04 00:17:48;;;;;;;4.22;0.93;;;;;;;10.05;100.00;100037.44;5077856;28;20104;-65
2022/11/04 00:28:44;;;;;;;3.00;0.40;;;;;;;9.79;100.00;100046.94;5092525;28;20042;-64
2022/11/04 00:33:56;;;;;;;2.78;0.52;;;;;;;9.64;100.00;100048.59;5093361;28;20035;-64
2022/11/04 00:36:23;;;;;;;4.78;0.57;;;;;;;9.58;100.00;100036.28;5082028;28;20678;-65
2022/11/04 00:38:48;;;;;;;0.93;0.43;;;;;;;9.51;100.00;100040.63;5092760;28;20032;-64
2022/11/04 00:41:34;;;;;;;1.85;0.68;;;;;;;9.49;100.00;100042.34;5089678;28;20117;-64
2022/11/04 00:44:02;;;;;;;1.50;0.47;;;;;;;9.43;100.00;100035.28;5086197;28;20044;-67
2022/11/04 00:46:30;;;;;;;6.13;0.40;;;;;;;9.40;100.00;100040.53;5073637;28;20074;-64
2022/11/04 00:48:56;;;;;;;4.38;0.40;;;;;;;9.37;100.00;100042.22;5088956;28;20107;-65
2022/11/04 00:51:22;;;;;;;4.30;0.50;;;;;;;9.34;100.00;100050.97;5090128;28;20109;-65
2022/11/04 00:53:47;;;;;;;1.63;0.35;;;;;;;9.30;100.00;100051.81;5089626;28;20031;-65
2022/11/04 00:56:13;;;;;;;2.05;0.55;;;;;;;9.25;100.00;100057.03;5092014;28;20024;-64
2022/11/04 00:58:38;;;;;;;5.97;0.80;;;;;;;9.25;100.00;100064.00;5092184;28;20081;-64
2022/11/04 01:01:11;;;;;;;4.57;0.60;;;;;;;9.21;100.00;100064.84;5082814;28;20036;-65
2022/11/04 01:03:37;;;;;;;3.10;0.70;;;;;;;9.19;100.00;100061.34;5079804;28;20094;-64
2022/11/04 01:06:04;;;;;;;5.40;0.73;;;;;;;9.18;100.00;100072.69;5080797;28;20140;-65
2022/11/04 01:08:29;;;;;;;7.43;0.70;;;;;;;9.17;100.00;100076.16;5092108;28;20099;-65
2022/11/04 01:10:55;;;;;;;1.48;0.52;;;;;;;9.17;100.00;100077.06;5091524;28;20812;-65
2022/11/04 01:13:20;;;;;;;8.75;0.82;;;;;;;9.21;100.00;100080.59;5092157;28;20059;-65
2022/11/04 01:15:45;;;;;;;4.15;0.75;;;;;;;9.20;100.00;100090.22;5091745;28;20107;-65
2022/11/04 01:18:11;;;;;;;3.35;0.60;;;;;;;9.25;100.00;100101.66;5083748;28;20038;-65
2022/11/04 01:20:36;;;;;;;5.20;0.70;;;;;;;9.31;100.00;100106.06;5084756;28;20047;-64
2022/11/04 01:23:02;;;;;;;2.25;0.70;;;;;;;9.37;100.00;100100.91;5076667;28;20024;-65
2022/11/04 01:25:27;;;;;;;2.05;0.70;;;;;;;9.47;100.00;100100.97;5086876;28;20031;-64
2022/11/04 01:27:54;;;;;;;6.38;1.23;;;;;;;9.55;100.00;100110.69;5090392;28;20024;-65
2022/11/04 01:30:19;;;;;;;4.03;0.90;;;;;;;9.65;100.00;100105.50;5080941;28;20028;-66
2022/11/04 01:32:45;;;;;;;3.92;1.27;;;;;;;9.69;100.00;100116.03;5090921;28;20074;-63
2022/11/04 01:35:10;;;;;;;3.33;0.80;;;;;;;9.73;100.00;100120.47;5085302;28;20443;-65
2022/11/04 01:37:35;;;;;;;3.53;0.75;;;;;;;9.73;100.00;100114.34;5090205;28;20391;-65
2022/11/04 01:40:01;;;;;;;3.97;0.63;;;;;;;9.77;100.00;100121.38;5091755;28;20066;-65
2022/11/04 01:42:26;;;;;;;3.28;0.70;;;;;;;9.73;100.00;100122.22;5090881;28;20031;-64
2022/11/04 01:44:56;;;;;;;8.95;1.13;;;;;;;9.73;100.00;100130.09;5091256;28;20020;-64
2022/11/04 01:47:43;;;;;;;1.55;0.47;;;;;;;9.74;100.00;100135.38;5086848;28;20051;-64
2022/11/04 01:50:18;;;;;;;1.45;0.38;;;;;;;9.69;100.00;100137.06;5086019;28;20060;-64
2022/11/04 01:52:53;;;;;;;1.58;0.43;;;;;;;9.67;100.00;100140.53;5091359;28;20024;-64
2022/11/04 01:55:24;;;;;;;3.67;0.50;;;;;;;9.60;100.00;100145.75;5092355;28;20032;-66
2022/11/04 01:57:53;;;;;;;2.70;0.43;;;;;;;9.62;100.00;100148.41;5087739;28;20023;-65
2022/11/04 02:00:19;;;;;;;3.40;0.73;;;;;;;9.56;100.00;100145.69;5083624;28;20399;-65
2022/11/04 02:02:58;;;;;;;2.53;0.50;;;;;;;9.54;100.00;100144.81;5086290;28;20031;-66
2022/11/04 02:05:23;;;;;;;2.58;0.50;;;;;;;9.55;100.00;100146.56;5072448;28;20111;-65
2022/11/04 02:07:54;;;;;;;8.68;0.90;;;;;;;9.48;100.00;100139.50;5085649;28;20102;-65
2022/11/04 02:10:22;;;;;;;1.55;0.40;;;;;;;9.47;100.00;100145.59;5091796;28;20028;-65
2022/11/04 02:12:48;;;;;;;1.10;0.52;;;;;;;9.49;100.00;100151.75;5085941;28;20134;-65
2022/11/04 02:15:13;;;;;;;0.63;0.40;;;;;;;9.48;100.00;100145.59;5084838;28;20035;-65
2022/11/04 02:17:51;;;;;;;1.42;0.80;;;;;;;9.45;100.00;100145.59;5088062;28;20020;-64
2022/11/04 02:20:31;;;;;;;7.18;1.30;;;;;;;9.47;100.00;100148.22;5090128;28;20123;-65
2022/11/04 02:23:27;;;;;;;1.67;1.15;;;;;;;9.51;100.00;100157.91;5081172;28;20032;-65
2022/11/04 02:26:31;;;;;;;2.78;1.33;;;;;;;9.49;100.00;100172.78;5091061;28;20054;-65
2022/11/04 02:29:02;;;;;;;5.10;1.40;;;;;;;9.42;100.00;100177.94;5076939;28;20038;-65
2022/11/04 02:31:38;;;;;;;10.93;2.13;;;;;;;9.35;100.00;100184.00;5089337;28;20016;-65
2022/11/04 02:34:39;;;;;;;7.03;2.20;;;;;;;9.33;100.00;100177.84;5094073;28;20032;-65
2022/11/04 02:37:32;;;;;;;6.72;2.72;;;;;;;9.32;100.00;100176.09;5022921;28;20034;-64
2022/11/04 02:40:21;;;;;;;5.45;2.72;;;;;;;9.30;100.00;100172.56;5090885;28;20093;-64
2022/11/04 02:42:55;;;;;;;7.72;3.13;;;;;;;9.29;100.00;100176.06;5092970;28;20470;-64
2022/11/04 02:45:44;;;;;;;8.95;3.28;;;;;;;9.27;100.00;100165.53;5083982;28;20032;-64
2022/11/04 02:48:12;;;;;;;8.50;3.75;;;;;;;9.28;100.00;100166.44;5090422;28;20816;-64
2022/11/04 02:50:42;;;;;;;7.50;3.42;;;;;;;9.27;100.00;100172.53;5085266;28;20021;-65
2022/11/04 02:53:23;;;;;;;8.73;3.72;;;;;;;9.27;100.00;100167.28;5088638;28;20464;-65
2022/11/04 02:55:55;;;;;;;9.85;3.45;;;;;;;9.28;100.00;100167.31;5095445;28;20472;-65
2022/11/04 02:58:33;;;;;;;8.85;4.40;;;;;;;9.32;100.00;100175.22;5086931;28;20059;-65
2022/11/04 03:01:00;;;;;;;12.93;5.15;;;;;;;9.31;100.00;100176.97;5078580;28;20051;-64
2022/11/04 03:03:36;;;;;;;9.82;5.28;;;;;;;9.34;100.00;100171.75;5092406;28;20398;-65
2022/11/04 03:06:03;;;;;;;10.90;5.03;;;;;;;9.36;100.00;100177.91;5094984;28;20464;-65
2022/11/04 03:08:33;;;;;;;14.27;6.22;;;;;;;9.39;100.00;100172.69;5086513;28;20460;-65
2022/11/04 03:11:20;;;;;;;14.18;5.65;;;;;;;9.40;100.00;100174.44;5079319;28;20017;-66
2022/11/04 03:13:56;;;;;;;13.82;6.85;;;;;;;9.39;100.00;100170.03;5091981;28;20480;-64
2022/11/04 03:16:53;;;;;;;17.25;6.78;;;;;;;9.39;100.00;100172.69;5092081;28;20112;-65
2022/11/04 03:19:39;;;;;;;17.73;7.53;;;;;;;9.42;100.00;100172.69;5088045;28;20039;-64
2022/11/04 03:22:17;;;;;;;16.30;7.60;;;;;;;9.42;100.00;100172.69;5093982;28;20035;-65
2022/11/04 03:24:45;;;;;;;13.80;8.13;;;;;;;9.38;100.00;100178.78;5074922;28;20108;-65
2022/11/04 03:27:48;;;;;;;15.50;7.15;;;;;;;9.34;100.00;100184.88;5089084;28;20435;-65
2022/11/04 03:30:18;;;;;;;15.98;7.85;;;;;;;9.30;100.00;100180.44;5079220;28;20028;-65
2022/11/04 03:33:13;;;;;;;18.25;7.60;;;;;;;9.27;100.00;100183.03;5087519;28;20024;-64
2022/11/04 03:35:38;;;;;;;17.50;7.82;;;;;;;9.24;100.00;100183.03;5075624;28;20020;-65
2022/11/04 03:38:04;;;;;;;23.90;8.35;;;;;;;9.22;100.00;100200.47;5087691;28;20035;-65
2022/11/04 03:40:30;;;;;;;19.15;9.68;;;;;;;9.20;100.00;100195.22;5093667;28;20024;-64
2022/11/04 03:43:03;;;;;;;18.25;8.50;;;;;;;9.21;100.00;100197.00;5089236;28;20028;-65
2022/11/04 03:45:29;;;;;;;22.60;8.38;;;;;;;9.18;100.00;100204.81;5093223;28;20020;-64
2022/11/04 03:47:55;;;;;;;16.20;8.52;;;;;;;9.12;100.00;100202.13;5086514;28;20035;-65
2022/11/04 03:50:29;;;;;;;19.48;8.60;;;;;;;9.09;100.00;100205.59;5092601;28;20349;-65
2022/11/04 03:52:56;;;;;;;19.15;9.30;;;;;;;9.09;100.00;100208.22;5090961;28;20085;-65
2022/11/04 03:55:37;;;;;;;19.65;9.15;;;;;;;9.05;100.00;100208.16;5082842;28;20130;-64
2022/11/04 03:58:26;;;;;;;17.92;9.00;;;;;;;8.98;100.00;100215.09;5087617;28;20028;-65
2022/11/04 04:01:07;;;;;;;21.55;8.75;;;;;;;9.00;100.00;100221.22;5092604;28;20045;-65
2022/11/04 04:03:43;;;;;;;16.73;8.43;;;;;;;8.98;100.00;100222.97;5085599;28;20036;-66
2022/11/04 04:06:14;;;;;;;20.48;9.77;;;;;;;8.98;100.00;100225.59;5079358;28;20036;-66
2022/11/04 04:08:48;;;;;;;19.38;10.45;;;;;;;8.95;100.00;100222.88;5090512;28;20387;-65
2022/11/04 04:11:29;;;;;;;21.67;10.57;;;;;;;8.89;100.00;100223.69;5088528;28;20522;-65
2022/11/04 04:14:04;;;;;;;22.13;10.90;;;;;;;8.89;100.00;100239.44;5091860;28;20460;-65
2022/11/04 04:16:36;;;;;;;22.30;10.75;;;;;;;8.87;100.00;100227.16;5084360;28;20428;-64
2022/11/04 04:19:12;;;;;;;22.65;11.38;;;;;;;8.85;100.00;100231.53;5084989;28;20430;-64
2022/11/04 04:21:53;;;;;;;25.98;11.95;;;;;;;8.80;100.00;100233.19;5089428;28;20039;-63
2022/11/04 04:29:53;;;;;;;26.13;12.82;;;;;;;8.67;100.00;100238.28;5092159;28;20030;-64
2022/11/04 04:32:23;;;;;;;26.02;12.98;;;;;;;8.64;100.00;100240.84;5079047;28;20460;-64
2022/11/04 04:34:48;;;;;;;27.67;13.82;;;;;;;8.62;100.00;100250.44;5093337;28;20096;-62
2022/11/04 04:37:18;;;;;;;25.67;13.38;;;;;;;8.62;100.00;100244.31;5089934;28;20020;-65
2022/11/04 04:45:37;;;;;;;32.72;13.50;;;;;;;8.59;100.00;100256.50;5091369;28;20039;-65
2022/11/04 04:48:03;;;;;;;33.15;14.65;;;;;;;8.59;100.00;100271.38;5087378;28;20486;-64
2022/11/04 04:50:36;;;;;;;32.92;14.15;;;;;;;8.53;100.00;100272.16;5091514;28;20054;-65
2022/11/04 04:53:03;;;;;;;22.35;12.32;;;;;;;8.53;100.00;100276.50;5085212;28;20036;-63
2022/11/04 04:55:30;;;;;;;27.30;13.50;;;;;;;8.48;100.00;100286.03;5085859;28;20019;-64
2022/11/04 04:57:56;;;;;;;32.33;13.18;;;;;;;8.41;100.00;100291.16;5090187;28;20023;-65
2022/11/04 05:00:22;;;;;;;28.60;12.15;;;;;;;8.39;100.00;100284.13;5076620;28;20041;-64
2022/11/04 05:02:47;;;;;;;24.15;12.40;;;;;;;8.31;100.00;100289.22;5083398;28;20074;-65
2022/11/04 05:05:13;;;;;;;23.88;12.50;;;;;;;8.28;100.00;100287.44;5090588;28;20166;-66
2022/11/04 05:07:38;;;;;;;26.20;12.70;;;;;;;8.26;100.00;100288.25;5091935;28;20027;-64
2022/11/04 05:10:05;;;;;;;28.58;12.48;;;;;;;8.23;100.00;100293.47;5083771;28;20057;-64
2022/11/04 05:13:24;;;;;;;28.80;12.70;;;;;;;8.20;100.00;100290.81;5080546;28;20115;-64
2022/11/04 05:15:16;;;;;;;23.98;12.88;;;;;;;8.21;100.00;100296.06;5082887;28;20472;-65
2022/11/04 05:17:41;;;;;;;32.30;14.38;;;;;;;8.24;100.00;100297.84;5084602;28;20107;-65
2022/11/04 05:20:08;;;;;;;27.27;12.63;;;;;;;8.27;100.00;100297.91;5076810;28;20052;-65
2022/11/04 05:22:33;;;;;;;29.52;13.70;;;;;;;8.36;100.00;100308.53;5086617;28;20590;-65
2022/11/04 05:24:58;;;;;;;31.17;13.63;;;;;;;8.37;100.00;100309.41;5074375;28;20032;-65
2022/11/04 05:27:23;;;;;;;35.25;14.60;;;;;;;8.43;100.00;100318.28;5073826;28;20086;-65
2022/11/04 05:29:49;;;;;;;46.17;17.88;;;;;;;8.49;100.00;100325.41;5076144;28;20598;-65
2022/11/04 05:32:14;;;;;;;35.80;15.75;;;;;;;8.53;100.00;100321.09;5089403;28;20028;-65
2022/11/04 05:34:39;;;;;;;31.98;14.65;;;;;;;8.54;100.00;100328.09;5086050;28;20368;-64
2022/11/04 05:37:05;;;;;;;31.67;15.73;;;;;;;8.56;100.00;100339.47;5087538;28;20107;-64
2022/11/04 05:39:30;;;;;;;37.45;15.70;;;;;;;8.62;100.00;100333.47;5089316;28;20020;-64
2022/11/04 05:41:55;;;;;;;32.92;14.55;;;;;;;8.64;100.00;100332.66;5075393;28;20036;-64
2022/11/04 05:44:20;;;;;;;40.50;17.90;;;;;;;8.64;100.00;100330.03;5090293;28;20052;-64
2022/11/04 05:46:46;;;;;;;35.90;16.17;;;;;;;8.66;100.00;100330.06;5074724;28;20092;-65
2022/11/04 05:49:11;;;;;;;41.40;15.88;;;;;;;8.67;100.00;100332.69;5092049;28;20077;-65
2022/11/04 05:51:37;;;;;;;39.03;15.35;;;;;;;8.70;100.00;100334.47;5089773;28;20039;-65
2022/11/04 05:54:02;;;;;;;38.70;15.07;;;;;;;8.70;100.00;100334.47;5072797;28;20128;-65
2022/11/04 05:56:27;;;;;;;31.10;14.70;;;;;;;8.68;100.00;100330.94;5076540;28;20031;-65
2022/11/04 05:58:53;;;;;;;32.38;14.45;;;;;;;8.68;100.00;100328.31;5088019;28;20028;-65
2022/11/04 06:01:42;;;;;;;28.15;14.25;;;;;;;8.64;100.00;100326.50;5091714;28;20072;-64
2022/11/04 06:04:12;;;;;;;32.80;14.82;;;;;;;8.60;100.00;100329.09;5087643;28;20043;-65
2022/11/04 06:06:38;;;;;;;34.22;14.52;;;;;;;8.58;100.00;100330.78;5085721;28;20016;-65
2022/11/04 06:09:04;;;;;;;30.23;14.48;;;;;;;8.59;100.00;100334.31;5093910;28;20043;-65
2022/11/04 06:11:30;;;;;;;27.88;13.48;;;;;;;8.56;100.00;100331.63;5085115;28;20110;-65
2022/11/04 06:13:56;;;;;;;27.15;13.30;;;;;;;8.54;100.00;100334.22;5087642;28;20028;-64
2022/11/04 06:16:22;;;;;;;30.38;14.35;;;;;;;8.52;100.00;100327.19;5087493;28;20028;-65
2022/11/04 06:18:47;;;;;;;27.33;14.45;;;;;;;8.46;100.00;100321.84;5089900;28;20024;-65
2022/11/04 06:21:12;;;;;;;29.13;13.32;;;;;;;8.40;100.00;100322.59;5077673;28;20395;-64
2022/11/04 06:23:38;;;;;;;40.05;15.40;;;;;;;8.40;100.00;100320.84;5087927;28;20396;-65
2022/11/04 06:26:04;;;;;;;38.00;13.73;;;;;;;8.43;100.00;100322.66;5083378;28;20395;-65
2022/11/04 06:28:30;;;;;;;34.25;14.82;;;;;;;8.44;100.00;100322.66;5094906;28;20023;-64
2022/11/04 06:31:00;;;;;;;28.10;14.35;;;;;;;8.47;100.00;100328.88;5083233;28;20695;-65
2022/11/04 06:33:26;;;;;;;29.33;15.23;;;;;;;8.49;100.00;100327.13;5085136;28;20103;-64
2022/11/04 06:35:55;;;;;;;29.25;13.40;;;;;;;8.49;100.00;100335.00;5088939;28;20714;-66
2022/11/04 06:38:20;;;;;;;35.22;13.57;;;;;;;8.49;100.00;100335.00;5092668;28;20531;-65
2022/11/04 06:40:46;;;;;;;35.63;15.20;;;;;;;8.52;100.00;100340.28;5089205;28;20118;-64
2022/11/04 06:43:11;;;;;;;28.50;13.75;;;;;;;8.53;100.00;100339.44;5083741;28;20017;-64
2022/11/04 06:45:36;;;;;;;22.90;13.20;;;;;;;8.60;100.00;100338.72;5078685;28;20026;-64
2022/11/04 06:48:02;;;;;;;23.55;12.48;;;;;;;8.56;100.00;100350.88;5086211;28;20382;-64
2022/11/04 06:50:27;;;;;;;21.27;10.77;;;;;;;8.54;100.00;100352.56;5080780;28;20036;-67
2022/11/04 06:52:52;;;;;;;18.23;10.15;;;;;;;8.60;100.00;100355.31;5075374;28;20383;-67
2022/11/04 06:55:17;;;;;;;26.83;10.27;;;;;;;8.60;100.00;100357.94;5079511;28;20035;-66
2022/11/04 06:57:43;;;;;;;17.05;8.90;;;;;;;8.60;100.00;100363.19;5076930;28;20476;-66
2022/11/04 07:00:09;;;;;;;21.25;9.13;;;;;;;8.60;100.00;100372.81;5082255;28;20040;-66
2022/11/04 07:02:36;;;;;;;19.38;8.27;;;;;;;8.60;100.00;100373.66;5081447;28;20037;-66
2022/11/04 07:05:01;;;;;;;26.13;8.27;;;;;;;8.61;100.00;100374.53;5084722;28;20062;-66
2022/11/04 07:07:28;;;;;;;20.85;8.68;;;;;;;8.61;100.00;100385.03;5093765;28;20061;-68
2022/11/04 07:09:53;;;;;;;18.85;8.70;;;;;;;8.58;100.00;100391.09;5090490;28;20021;-66
2022/11/04 07:12:21;;;;;;;23.13;8.95;;;;;;;8.55;100.00;100392.81;5084881;28;20073;-66
2022/11/04 07:14:46;;;;;;;20.17;8.68;;;;;;;8.54;100.00;100399.78;5080217;28;20020;-66
2022/11/04 07:17:11;;;;;;;18.92;9.10;;;;;;;8.55;100.00;100398.94;5084394;28;20031;-65
2022/11/04 07:19:36;;;;;;;25.15;9.95;;;;;;;8.56;100.00;100407.66;5090246;28;20356;-67
2022/11/04 07:22:02;;;;;;;24.88;9.23;;;;;;;8.57;100.00;100399.84;5077343;28;20039;-67
2022/11/04 07:24:27;;;;;;;26.40;10.32;;;;;;;8.58;100.00;100412.09;5085206;28;20051;-68
2022/11/04 07:26:55;;;;;;;29.05;10.07;;;;;;;8.63;100.00;100416.53;5077857;28;20096;-67
2022/11/04 07:29:21;;;;;;;23.98;10.43;;;;;;;8.67;100.00;100419.25;5077264;28;20024;-67
2022/11/04 07:31:46;;;;;;;25.83;11.13;;;;;;;8.74;100.00;100431.59;5078057;28;20039;-66
2022/11/04 07:34:11;;;;;;;26.55;10.55;;;;;;;8.85;100.00;100441.41;5080208;28;20028;-66
2022/11/04 07:36:37;;;;;;;26.10;9.55;;;;;;;8.88;100.00;100439.69;5080030;28;20504;-67
2022/11/04 07:39:03;;;;;;;22.50;11.00;;;;;;;8.94;100.00;100438.94;5079332;28;20028;-67
2022/11/04 07:41:28;;;;;;;27.88;11.55;;;;;;;9.01;100.00;100438.19;5076512;28;20379;-67
2022/11/04 07:43:54;;;;;;;27.05;9.45;;;;;;;9.08;100.00;100445.28;5086195;28;20114;-64
2022/11/04 07:46:20;;;;;;;29.17;11.05;;;;;;;9.10;100.00;100440.97;5085755;28;20107;-66
2022/11/04 07:48:46;;;;;;;30.40;11.27;;;;;;;9.16;100.00;100452.41;5090403;28;20467;-65
2022/11/04 07:51:15;;;;;;;25.33;10.18;;;;;;;9.20;100.00;100459.50;5085008;28;20380;-65
2022/11/04 07:53:41;;;;;;;23.10;10.45;;;;;;;9.22;100.00;100469.13;5089827;28;20016;-66
2022/11/04 07:56:10;;;;;;;24.63;10.93;;;;;;;9.26;100.00;100470.06;5074095;28;20383;-64
2022/11/04 07:58:36;;;;;;;29.95;11.40;;;;;;;9.27;100.00;100471.84;5081252;28;20035;-66
2022/11/04 08:01:05;;;;;;;25.33;11.13;;;;;;;9.29;100.00;100467.47;5083676;28;20082;-66
2022/11/04 08:03:32;;;;;;;27.45;14.05;;;;;;;9.25;100.00;100469.19;5082999;28;20055;-65
2022/11/04 08:05:59;;;;;;;25.38;12.52;;;;;;;9.22;100.00;100469.13;5090634;28;20062;-64
2022/11/04 08:08:24;;;;;;;29.20;11.55;;;;;;;9.26;100.00;100481.47;5082117;28;20051;-65
2022/11/04 08:11:02;;;;;;;29.05;12.43;;;;;;;9.28;100.00;100473.63;5091192;28;20433;-65
2022/11/04 08:13:33;;;;;;;23.42;11.85;;;;;;;9.30;100.00;100482.38;5083911;28;20038;-65
2022/11/04 08:16:04;;;;;;;28.38;12.43;;;;;;;9.36;100.00;100486.84;5081403;28;20372;-65
2022/11/04 08:18:31;;;;;;;29.35;12.48;;;;;;;9.38;100.00;100483.38;5081777;28;20029;-65
2022/11/04 08:20:57;;;;;;;29.27;14.38;;;;;;;9.49;100.00;100493.19;5080918;28;20028;-65
2022/11/04 08:23:23;;;;;;;26.23;12.90;;;;;;;9.55;100.00;100488.00;5080995;28;20384;-63
2022/11/04 08:25:48;;;;;;;23.08;12.65;;;;;;;9.68;100.00;100496.97;5084686;28;20089;-64
2022/11/04 08:28:17;;;;;;;27.27;12.88;;;;;;;9.76;100.00;100498.84;5076499;28;20053;-64
2022/11/04 08:31:01;;;;;;;33.67;12.63;;;;;;;9.88;100.00;100500.75;5091126;28;20015;-65
2022/11/04 08:33:28;;;;;;;22.58;11.77;;;;;;;10.01;100.00;100509.72;5089771;28;20027;-64
2022/11/04 08:35:55;;;;;;;25.95;11.57;;;;;;;10.13;100.00;100507.25;5074305;28;20154;-65
2022/11/04 08:38:20;;;;;;;22.77;11.55;;;;;;;10.18;100.00;100506.41;5085637;28;20028;-64
2022/11/04 08:40:46;;;;;;;20.50;10.52;;;;;;;10.21;100.00;100504.69;5081377;28;20046;-64
2022/11/04 08:43:12;;;;;;;15.93;9.57;;;;;;;10.30;100.00;100507.44;5084175;28;20379;-64
2022/11/04 08:45:42;;;;;;;25.30;10.93;;;;;;;10.37;100.00;100516.31;5073314;28;20054;-64
2022/11/04 08:48:08;;;;;;;13.85;8.82;;;;;;;10.30;100.00;100511.81;5082438;28;20498;-64
2022/11/04 08:50:34;;;;;;;17.35;8.90;;;;;;;10.40;100.00;100507.56;5080240;28;20016;-64
2022/11/04 08:53:00;;;;;;;14.27;7.82;;;;;;;10.40;100.00;100518.97;5079943;28;20035;-64
2022/11/04 08:55:28;;;;;;;14.40;8.65;;;;;;;10.48;100.00;100518.19;5080820;28;20031;-65
2022/11/04 08:57:53;;;;;;;19.38;8.13;;;;;;;10.61;100.00;100522.75;5082106;28;20024;-64
2022/11/04 09:00:19;;;;;;;10.43;7.03;;;;;;;10.78;100.00;100531.69;5081060;28;20506;-64
2022/11/04 09:02:45;;;;;;;9.98;6.68;;;;;;;10.98;100.00;100528.38;5078572;28;20055;-64
2022/11/04 09:05:13;;;;;;;10.98;5.57;;;;;;;11.19;100.00;100538.25;5088953;28;20028;-64
2022/11/04 09:07:39;;;;;;;7.03;4.93;;;;;;;11.18;100.00;100533.84;5091331;28;20078;-64
2022/11/04 09:10:05;;;;;;;8.45;4.40;;;;;;;11.20;100.00;100539.13;5091760;28;20511;-66
2022/11/04 09:12:31;;;;;;;12.50;4.88;;;;;;;11.37;100.00;100540.16;5083631;28;20125;-64
2022/11/04 09:14:56;;;;;;;8.05;4.32;;;;;;;11.54;100.00;100542.03;5081069;28;20066;-64
2022/11/04 09:17:22;;;;;;;5.90;3.85;;;;;;;11.68;100.00;100543.03;5078835;28;20031;-64
2022/11/04 09:19:47;;;;;;;9.15;4.18;;;;;;;11.84;100.00;100543.13;5086835;28;20032;-64
2022/11/04 09:22:13;;;;;;;7.80;3.75;;;;;;;11.98;100.00;100542.38;5081892;28;20035;-67
2022/11/04 09:24:38;;;;;;;9.95;3.30;;;;;;;12.26;100.00;100541.63;5082945;28;20478;-67
2022/11/04 09:27:04;;;;;;;4.78;3.30;;;;;;;12.36;100.00;100537.25;5076976;28;20039;-67
2022/11/04 09:29:32;;;;;;;7.10;2.53;;;;;;;12.55;100.00;100546.16;5084882;28;20039;-67
2022/11/04 09:31:58;;;;;;;7.55;3.13;;;;;;;12.79;100.00;100555.91;5081502;28;20056;-67
2022/11/04 09:34:23;;;;;;;7.15;2.45;;;;;;;12.96;100.00;100553.31;5073089;28;20468;-68
2022/11/04 09:36:48;;;;;;;4.15;2.03;;;;;;;13.00;100.00;100557.72;5074426;28;20032;-69
2022/11/04 09:39:14;;;;;;;4.65;2.15;;;;;;;12.99;100.00;100566.50;5080803;28;20023;-67
2022/11/04 09:41:45;;;;;;;6.40;2.63;;;;;;;12.94;100.00;100573.53;5072235;28;20107;-68
2022/11/04 09:44:22;;;;;;;5.22;2.05;;;;;;;12.83;100.00;100576.16;5082754;28;20062;-68
2022/11/04 09:46:49;;;;;;;4.60;1.98;;;;;;;12.67;100.00;100588.44;5082160;28;20134;-68
2022/11/04 09:49:15;;;;;;;8.43;2.83;;;;;;;12.41;100.00;100583.94;5088211;28;20025;-68
2022/11/04 09:51:44;;;;;;;5.60;2.60;;;;;;;12.39;100.00;100592.72;5076428;28;20016;-67
2022/11/04 09:54:39;;;;;;;3.53;2.60;;;;;;;12.36;100.00;100592.66;5083878;28;20036;-67
2022/11/04 09:57:11;;;;;;;6.07;2.25;;;;;;;12.39;100.00;100595.34;5071935;28;20046;-66
2022/11/04 09:59:36;;;;;;;9.45;2.92;;;;;;;12.52;100.00;100601.56;5075657;28;20478;-67
2022/11/04 10:02:18;;;;;;;7.43;2.75;;;;;;;12.72;100.00;100605.16;5078892;28;20435;-68
2022/11/04 10:05:03;;;;;;;4.57;1.73;;;;;;;13.01;100.00;100617.59;5074786;28;20448;-67
2022/11/04 10:07:37;;;;;;;5.38;2.50;;;;;;;13.03;100.00;100615.81;5076254;28;20472;-67
2022/11/04 10:10:16;;;;;;;3.90;2.13;;;;;;;12.99;100.00;100624.63;5081054;28;20066;-66
2022/11/04 10:13:07;;;;;;;7.35;2.60;;;;;;;12.90;100.00;100629.88;5082582;28;20017;-68
2022/11/04 10:16:11;;;;;;;7.80;2.75;;;;;;;12.87;100.00;100640.44;5078335;28;20024;-67
2022/11/04 10:18:49;;;;;;;5.40;2.00;;;;;;;12.91;100.00;100652.75;5067141;28;20047;-67
2022/11/04 10:21:40;;;;;;;4.93;1.90;;;;;;;12.93;100.00;100658.94;5080371;28;20024;-67
2022/11/04 10:24:14;;;;;;;4.72;1.60;;;;;;;12.85;100.00;100653.63;5079905;28;20421;-67
2022/11/04 10:26:45;;;;;;;5.57;1.90;;;;;;;12.83;100.00;100655.38;5076222;28;20028;-66
2022/11/04 10:29:36;;;;;;;2.78;2.10;;;;;;;12.87;100.00;100662.41;5083491;28;20020;-67
2022/11/04 10:32:10;;;;;;;5.10;1.85;;;;;;;12.91;100.00;100666.84;5074273;28;20024;-67
2022/11/04 10:34:38;;;;;;;;;;;;;;;13.00;100.00;100655.44;5084722;28;20019;-67
2022/11/04 10:37:09;;;;;;;4.68;1.98;;;;;;;13.15;100.00;100662.53;5075785;28;19912;-67
2022/11/04 10:39:41;;;;;;;6.65;2.05;;;;;;;13.30;100.00;100664.34;5078170;28;20042;-67
2022/11/04 10:42:10;;;;;;;3.35;2.05;;;;;;;13.45;100.00;100666.16;5079863;28;20124;-67
2022/11/04 10:44:37;;;;;;;6.13;2.13;;;;;;;13.56;100.00;100676.75;5075032;28;20032;-67
2022/11/04 10:47:25;;;;;;;8.20;1.88;;;;;;;13.63;100.00;100686.44;5083070;28;20028;-67
2022/11/04 10:50:12;;;;;;;3.45;1.52;;;;;;;13.75;100.00;100689.09;5082759;28;20035;-67
2022/11/04 10:52:38;;;;;;;5.03;1.83;;;;;;;13.79;100.00;100703.22;5086407;28;20103;-68
2022/11/04 10:55:15;;;;;;;5.10;1.52;;;;;;;13.83;100.00;100703.22;5076189;28;20024;-68
2022/11/04 10:57:41;;;;;;;5.93;1.48;;;;;;;13.59;100.00;100703.19;5081042;28;20371;-67
2022/11/04 11:00:07;;;;;;;4.28;1.70;;;;;;;13.54;100.00;100707.59;5090519;28;20127;-67
2022/11/04 11:02:44;;;;;;;3.80;1.80;;;;;;;13.43;100.00;100704.91;5086903;28;20035;-67
2022/11/04 11:05:16;;;;;;;6.82;2.00;;;;;;;13.33;100.00;100698.69;5087473;28;20028;-68
2022/11/04 11:07:47;;;;;;;4.25;1.00;;;;;;;13.18;100.00;100703.94;5079169;28;20024;-68
2022/11/04 11:10:24;;;;;;;3.53;1.35;;;;;;;12.90;100.00;100710.00;5078467;28;20081;-67
2022/11/04 11:12:55;;;;;;;0.85;0.50;;;;;;;12.76;100.00;100714.31;5081439;28;20127;-66
2022/11/04 11:15:24;;;;;;;1.90;0.70;;;;;;;12.54;100.00;100721.22;5083120;28;20080;-67
2022/11/04 11:17:56;;;;;;;2.50;1.02;;;;;;;12.39;100.00;100729.94;5079386;28;21254;-66
2022/11/04 11:20:23;;;;;;;3.70;0.80;;;;;;;12.27;100.00;100728.06;5080353;28;20027;-66
2022/11/04 11:22:50;;;;;;;1.70;0.80;;;;;;;12.17;100.00;100726.22;5090221;28;20028;-66
2022/11/04 11:25:19;;;;;;;1.65;0.93;;;;;;;12.10;100.00;100730.56;5091887;28;20028;-66
2022/11/04 11:27:47;;;;;;;3.63;0.90;;;;;;;12.03;100.00;100740.19;5091012;28;20031;-66
2022/11/04 11:30:25;;;;;;;3.92;1.05;;;;;;;11.99;100.00;100746.28;5089933;28;20045;-66
2022/11/04 11:32:54;;;;;;;3.08;1.10;;;;;;;11.96;100.00;100746.25;5091786;28;20077;-66
2022/11/04 11:35:24;;;;;;;4.05;1.13;;;;;;;11.89;100.00;100752.31;5088379;28;20046;-66
2022/11/04 11:37:49;;;;;;;2.13;0.52;;;;;;;11.80;100.00;100754.00;5083636;28;20361;-66
2022/11/04 11:40:24;;;;;;;5.95;0.57;;;;;;;11.71;100.00;100756.53;5082084;28;20030;-67
2022/11/04 11:42:49;;;;;;;1.65;0.50;;;;;;;11.64;100.00;100758.22;5082529;28;20036;-66
2022/11/04 11:45:15;;;;;;;2.22;0.70;;;;;;;11.63;100.00;100774.03;5084587;28;20024;-66
2022/11/04 11:47:42;;;;;;;2.63;0.60;;;;;;;11.60;100.00;100784.56;5084057;28;20774;-66
2022/11/04 11:50:15;;;;;;;2.83;0.90;;;;;;;11.61;100.00;100791.56;5080662;28;20020;-68
2022/11/04 11:52:42;;;;;;;0.45;0.40;;;;;;;11.53;100.00;100802.03;5087742;28;20115;-67
2022/11/04 11:55:18;;;;;;;2.88;0.80;;;;;;;11.58;100.00;100796.81;5078457;28;20464;-67
2022/11/04 11:58:10;;;;;;;2.20;0.55;;;;;;;11.62;100.00;100801.25;5085693;28;20029;-66